createdAt,value
2018-04-28T00:00:22.803Z,94.32
2018-04-28T00:01:22.679Z,94.22
2018-04-28T00:02:22.554Z,94.42
2018-04-28T00:03:22.427Z,94.32
2018-04-28T00:04:22.301Z,94.79
2018-04-28T00:05:22.177Z,94.32
2018-04-28T00:06:22.050Z,94.32
2018-04-28T00:07:21.924Z,94.51
2018-04-28T00:08:21.797Z,95.08
2018-04-28T00:09:21.673Z,94.60
2018-04-28T00:10:21.591Z,94.98
2018-04-28T00:11:21.420Z,95.08
2018-04-28T00:12:21.295Z,94.89
2018-04-28T00:13:21.167Z,94.60
2018-04-28T00:14:21.045Z,94.51
2018-04-28T00:15:20.919Z,95.17
2018-04-28T00:16:20.790Z,93.94
2018-04-28T00:17:20.665Z,94.51
2018-04-28T00:18:20.540Z,95.08
2018-04-28T00:19:20.415Z,94.79
2018-04-28T00:20:20.289Z,95.27
2018-04-28T00:21:20.165Z,94.98
2018-04-28T00:22:20.035Z,94.32
2018-04-28T00:23:19.913Z,94.89
2018-04-28T00:24:19.784Z,94.32
2018-04-28T00:25:19.659Z,95.08
2018-04-28T00:26:19.536Z,94.51
2018-04-28T00:27:19.408Z,94.79
2018-04-28T00:28:19.280Z,94.32
2018-04-28T00:29:19.157Z,94.98
2018-04-28T00:30:19.030Z,95.27
2018-04-28T00:31:18.904Z,94.51
2018-04-28T00:32:18.780Z,95.27
2018-04-28T00:33:18.653Z,94.13
2018-04-28T00:34:18.525Z,94.89
2018-04-28T00:35:18.402Z,95.12
2018-04-28T00:36:18.282Z,95.12
2018-04-28T00:37:18.147Z,94.79
2018-04-28T00:38:18.024Z,95.17
2018-04-28T00:39:17.897Z,94.79
2018-04-28T00:40:17.771Z,94.84
2018-04-28T00:41:17.646Z,94.56
2018-04-28T00:42:17.519Z,94.93
2018-04-28T00:43:17.393Z,94.08
2018-04-28T00:44:17.269Z,95.12
2018-04-28T00:45:17.141Z,94.32
2018-04-28T00:46:17.016Z,95.12
2018-04-28T00:47:16.895Z,94.79
2018-04-28T00:48:16.765Z,94.84
2018-04-28T00:49:16.638Z,94.93
2018-04-28T00:50:16.511Z,94.84
2018-04-28T00:51:16.395Z,95.17
2018-04-28T00:52:16.260Z,95.08
2018-04-28T00:53:16.134Z,94.46
2018-04-28T00:54:16.009Z,94.70
2018-04-28T00:55:15.882Z,94.08
2018-04-28T00:56:15.757Z,94.89
2018-04-28T00:57:15.628Z,94.98
2018-04-28T00:58:15.504Z,94.89
2018-04-28T00:59:15.376Z,94.42
2018-04-28T01:00:15.252Z,94.89
2018-04-28T01:01:15.124Z,94.89
2018-04-28T01:02:15.000Z,94.98
2018-04-28T01:03:14.875Z,93.94
2018-04-28T01:04:14.746Z,94.98
2018-04-28T01:05:14.620Z,94.89
2018-04-28T01:06:14.494Z,94.13
2018-04-28T01:07:14.369Z,94.89
2018-04-28T01:08:14.244Z,94.32
2018-04-28T01:09:14.118Z,93.94
2018-04-28T01:10:13.991Z,93.99
2018-04-28T01:11:13.865Z,94.84
2018-04-28T01:12:13.736Z,94.32
2018-04-28T01:13:13.613Z,94.84
2018-04-28T01:14:13.487Z,95.17
2018-04-28T01:15:13.360Z,95.08
2018-04-28T01:16:13.234Z,94.13
2018-04-28T01:17:13.110Z,94.98
2018-04-28T01:18:12.983Z,94.03
2018-04-28T01:19:12.856Z,94.70
2018-04-28T01:20:12.732Z,94.70
2018-04-28T01:21:12.605Z,94.32
2018-04-28T01:22:12.480Z,94.32
2018-04-28T01:23:12.352Z,94.51
2018-04-28T01:24:12.226Z,94.32
2018-04-28T01:25:12.101Z,94.32
2018-04-28T01:26:11.975Z,94.18
2018-04-28T01:27:11.851Z,94.93
2018-04-28T01:28:11.726Z,94.18
2018-04-28T01:29:11.597Z,94.79
2018-04-28T01:30:11.471Z,94.56
2018-04-28T01:31:11.345Z,94.65
2018-04-28T01:32:11.223Z,94.74
2018-04-28T01:33:11.095Z,94.74
2018-04-28T01:34:10.971Z,94.89
2018-04-28T01:35:10.842Z,94.84
2018-04-28T01:36:10.717Z,94.18
2018-04-28T01:37:10.591Z,94.89
2018-04-28T01:38:10.465Z,95.03
2018-04-28T01:39:10.340Z,94.84
2018-04-28T01:40:10.215Z,94.93
2018-04-28T01:41:10.086Z,94.74
2018-04-28T01:42:09.962Z,94.84
2018-04-28T01:43:09.840Z,94.79
2018-04-28T01:44:09.715Z,93.99
2018-04-28T01:45:09.584Z,94.46
2018-04-28T01:46:09.457Z,94.74
2018-04-28T01:47:09.331Z,94.84
2018-04-28T01:48:09.206Z,94.51
2018-04-28T01:49:09.080Z,94.70
2018-04-28T01:50:08.952Z,93.94
2018-04-28T01:51:08.827Z,94.65
2018-04-28T01:52:08.701Z,95.08
2018-04-28T01:53:08.576Z,94.74
2018-04-28T01:54:08.450Z,94.42
2018-04-28T01:55:08.324Z,94.27
2018-04-28T01:56:08.196Z,94.93
2018-04-28T01:57:08.070Z,94.65
2018-04-28T01:58:07.947Z,95.03
2018-04-28T01:59:07.821Z,94.56
2018-04-28T02:00:07.694Z,94.93
2018-04-28T02:01:07.567Z,94.79
2018-04-28T02:02:07.439Z,94.74
2018-04-28T02:03:07.316Z,93.65
2018-04-28T02:04:07.190Z,92.41
2018-04-28T02:05:07.064Z,91.28
2018-04-28T02:06:06.939Z,91.66
2018-04-28T02:07:06.812Z,93.08
2018-04-28T02:08:06.686Z,93.18
2018-04-28T02:09:06.557Z,94.03
2018-04-28T02:10:06.434Z,93.94
2018-04-28T02:11:06.307Z,93.37
2018-04-28T02:12:06.182Z,93.75
2018-04-28T02:13:06.056Z,93.70
2018-04-28T02:14:05.929Z,92.89
2018-04-28T02:15:05.804Z,92.99
2018-04-28T02:16:05.676Z,92.80
2018-04-28T02:17:05.550Z,93.18
2018-04-28T02:18:05.422Z,93.37
2018-04-28T02:19:05.297Z,93.70
2018-04-28T02:20:05.171Z,93.89
2018-04-28T02:21:05.045Z,94.18
2018-04-28T02:22:04.924Z,94.93
2018-04-28T02:23:04.795Z,94.56
2018-04-28T02:24:04.669Z,94.84
2018-04-28T02:25:04.540Z,94.74
2018-04-28T02:26:04.415Z,95.03
2018-04-28T02:27:04.288Z,94.65
2018-04-28T02:28:04.163Z,94.37
2018-04-28T02:29:04.037Z,94.56
2018-04-28T02:30:03.913Z,94.56
2018-04-28T02:31:03.784Z,94.84
2018-04-28T02:32:03.663Z,94.74
2018-04-28T02:33:03.530Z,95.32
2018-04-28T02:34:03.407Z,95.03
2018-04-28T02:35:03.277Z,94.84
2018-04-28T02:36:03.153Z,95.12
2018-04-28T02:37:03.027Z,95.03
2018-04-28T02:38:02.902Z,94.74
2018-04-28T02:39:02.776Z,94.84
2018-04-28T02:40:02.650Z,94.84
2018-04-28T02:41:02.524Z,95.03
2018-04-28T02:42:02.399Z,95.32
2018-04-28T02:43:02.282Z,94.84
2018-04-28T02:44:02.147Z,94.74
2018-04-28T02:45:02.021Z,94.18
2018-04-28T02:46:01.892Z,94.93
2018-04-28T02:47:01.765Z,95.03
2018-04-28T02:48:01.641Z,95.12
2018-04-28T02:49:01.515Z,94.74
2018-04-28T02:50:01.391Z,95.03
2018-04-28T02:51:01.271Z,94.74
2018-04-28T02:52:01.136Z,94.65
2018-04-28T02:53:01.012Z,94.65
2018-04-28T02:54:00.884Z,95.12
2018-04-28T02:55:00.757Z,94.84
2018-04-28T02:56:00.631Z,94.74
2018-04-28T02:57:00.505Z,94.74
2018-04-28T02:58:00.377Z,94.93
2018-04-28T02:59:00.251Z,95.32
2018-04-28T03:00:00.127Z,95.22
2018-04-28T03:00:59.997Z,94.93
2018-04-28T03:01:59.883Z,95.41
2018-04-28T03:02:59.747Z,95.03
2018-04-28T03:03:59.622Z,95.12
2018-04-28T03:04:59.496Z,94.65
2018-04-28T03:05:59.369Z,95.12
2018-04-28T03:06:59.241Z,95.22
2018-04-28T03:07:59.118Z,95.22
2018-04-28T03:08:58.988Z,95.41
2018-04-28T03:09:58.864Z,94.56
2018-04-28T03:10:58.738Z,95.12
2018-04-28T03:11:58.613Z,95.41
2018-04-28T03:12:58.482Z,94.74
2018-04-28T03:13:58.357Z,95.22
2018-04-28T03:14:58.232Z,95.03
2018-04-28T03:15:58.106Z,95.41
2018-04-28T03:16:57.983Z,94.74
2018-04-28T03:17:57.889Z,95.22
2018-04-28T03:18:57.728Z,95.89
2018-04-28T03:19:57.601Z,95.12
2018-04-28T03:20:57.471Z,95.22
2018-04-28T03:21:57.347Z,95.22
2018-04-28T03:22:57.220Z,94.84
2018-04-28T03:23:57.093Z,94.84
2018-04-28T03:24:56.967Z,95.41
2018-04-28T03:25:56.842Z,95.32
2018-04-28T03:26:56.715Z,94.84
2018-04-28T03:27:56.591Z,95.32
2018-04-28T03:28:56.468Z,95.12
2018-04-28T03:29:56.338Z,94.93
2018-04-28T03:30:56.210Z,95.03
2018-04-28T03:31:56.088Z,95.22
2018-04-28T03:32:55.956Z,94.74
2018-04-28T03:33:55.830Z,94.65
2018-04-28T03:34:55.704Z,95.03
2018-04-28T03:35:55.580Z,95.32
2018-04-28T03:36:55.504Z,95.41
2018-04-28T03:37:55.324Z,95.22
2018-04-28T03:38:55.198Z,94.84
2018-04-28T03:39:55.074Z,94.84
2018-04-28T03:40:54.943Z,95.32
2018-04-28T03:41:54.819Z,94.65
2018-04-28T03:42:54.693Z,95.22
2018-04-28T03:43:54.565Z,95.41
2018-04-28T03:44:54.436Z,94.84
2018-04-28T03:45:54.312Z,95.22
2018-04-28T03:46:54.185Z,95.12
2018-04-28T03:47:54.061Z,94.84
2018-04-28T03:48:53.932Z,94.84
2018-04-28T03:49:53.804Z,95.12
2018-04-28T03:50:53.680Z,95.32
2018-04-28T03:51:53.555Z,95.60
2018-04-28T03:52:53.428Z,95.22
2018-04-28T03:53:53.301Z,95.03
2018-04-28T03:54:53.174Z,95.03
2018-04-28T03:55:53.048Z,95.41
2018-04-28T03:56:52.920Z,95.22
2018-04-28T03:57:52.794Z,95.22
2018-04-28T03:58:52.670Z,95.12
2018-04-28T03:59:52.543Z,95.41
2018-04-28T04:00:52.414Z,95.41
2018-04-28T04:01:52.293Z,94.56
2018-04-28T04:02:52.164Z,95.41
2018-04-28T04:03:52.038Z,95.60
2018-04-28T04:04:51.911Z,95.12
2018-04-28T04:05:51.780Z,95.03
2018-04-28T04:06:51.658Z,94.46
2018-04-28T04:07:51.529Z,95.12
2018-04-28T04:08:51.407Z,95.12
2018-04-28T04:09:51.277Z,94.93
2018-04-28T04:10:51.152Z,95.03
2018-04-28T04:11:51.026Z,95.89
2018-04-28T04:12:50.898Z,94.65
2018-04-28T04:13:50.771Z,95.12
2018-04-28T04:14:50.647Z,94.93
2018-04-28T04:15:50.523Z,94.93
2018-04-28T04:16:50.394Z,94.74
2018-04-28T04:17:50.268Z,94.84
2018-04-28T04:18:50.140Z,95.12
2018-04-28T04:19:50.014Z,94.84
2018-04-28T04:20:49.886Z,95.12
2018-04-28T04:21:49.762Z,95.03
2018-04-28T04:22:49.635Z,95.41
2018-04-28T04:23:49.514Z,95.12
2018-04-28T04:24:49.384Z,95.32
2018-04-28T04:25:49.261Z,95.32
2018-04-28T04:26:49.130Z,96.65
2018-04-28T04:27:49.005Z,94.46
2018-04-28T04:28:48.877Z,94.93
2018-04-28T04:29:48.751Z,95.12
2018-04-28T04:30:48.625Z,94.65
2018-04-28T04:31:48.576Z,95.22
2018-04-28T04:32:48.375Z,95.41
2018-04-28T04:33:48.247Z,94.93
2018-04-28T04:34:48.123Z,95.12
2018-04-28T04:35:47.997Z,96.03
2018-04-28T04:36:47.869Z,94.89
2018-04-28T04:37:47.823Z,94.84
2018-04-28T04:38:47.617Z,95.12
2018-04-28T04:39:47.489Z,94.56
2018-04-28T04:40:47.365Z,95.51
2018-04-28T04:41:47.239Z,95.60
2018-04-28T04:42:47.113Z,95.22
2018-04-28T04:43:46.987Z,95.12
2018-04-28T04:44:46.865Z,94.93
2018-04-28T04:45:46.734Z,95.60
2018-04-28T04:46:46.609Z,95.70
2018-04-28T04:47:46.483Z,95.08
2018-04-28T04:48:46.356Z,95.03
2018-04-28T04:49:46.230Z,94.93
2018-04-28T04:50:46.104Z,95.03
2018-04-28T04:51:45.979Z,94.65
2018-04-28T04:52:45.852Z,94.74
2018-04-28T04:53:45.726Z,95.60
2018-04-28T04:54:45.601Z,95.79
2018-04-28T04:55:45.479Z,95.41
2018-04-28T04:56:45.348Z,94.98
2018-04-28T04:57:45.224Z,95.12
2018-04-28T04:58:45.100Z,95.32
2018-04-28T04:59:44.973Z,95.46
2018-04-28T05:00:44.847Z,96.12
2018-04-28T05:01:44.718Z,95.08
2018-04-28T05:02:44.593Z,95.08
2018-04-28T05:03:44.471Z,95.84
2018-04-28T05:04:44.343Z,94.89
2018-04-28T05:05:44.213Z,94.70
2018-04-28T05:06:44.091Z,95.27
2018-04-28T05:07:43.969Z,94.98
2018-04-28T05:08:43.837Z,94.79
2018-04-28T05:09:43.712Z,94.89
2018-04-28T05:10:43.589Z,96.08
2018-04-28T05:11:43.461Z,94.74
2018-04-28T05:12:43.336Z,94.93
2018-04-28T05:13:43.211Z,95.36
2018-04-28T05:14:43.083Z,94.27
2018-04-28T05:15:42.961Z,93.74
2018-04-28T05:16:42.831Z,93.74
2018-04-28T05:17:42.706Z,92.27
2018-04-28T05:18:42.582Z,92.08
2018-04-28T05:19:42.460Z,92.41
2018-04-28T05:20:42.334Z,93.08
2018-04-28T05:21:42.209Z,92.79
2018-04-28T05:22:42.085Z,92.70
2018-04-28T05:23:41.963Z,93.84
2018-04-28T05:24:41.833Z,92.03
2018-04-28T05:25:41.711Z,92.60
2018-04-28T05:26:41.583Z,91.75
2018-04-28T05:27:41.460Z,92.03
2018-04-28T05:28:41.338Z,91.94
2018-04-28T05:29:41.214Z,91.27
2018-04-28T05:30:41.083Z,90.80
2018-04-28T05:31:40.960Z,91.31
2018-04-28T05:32:40.835Z,90.94
2018-04-28T05:33:40.710Z,91.79
2018-04-28T05:34:40.585Z,90.46
2018-04-28T05:35:40.463Z,86.75
2018-04-28T05:36:40.337Z,87.70
2018-04-28T05:37:40.212Z,91.84
2018-04-28T05:38:40.091Z,91.36
2018-04-28T05:39:39.964Z,91.27
2018-04-28T05:40:39.840Z,91.65
2018-04-28T05:41:39.717Z,89.46
2018-04-28T05:42:39.594Z,87.88
2018-04-28T05:43:39.474Z,85.69
2018-04-28T05:44:39.344Z,84.64
2018-04-28T05:45:39.225Z,81.12
2018-04-28T05:46:39.100Z,79.02
2018-04-28T05:47:38.971Z,79.59
2018-04-28T05:48:38.851Z,79.02
2018-04-28T05:49:38.726Z,79.11
2018-04-28T05:50:38.600Z,79.97
2018-04-28T05:51:38.479Z,78.83
2018-04-28T05:52:38.356Z,79.59
2018-04-28T05:53:38.230Z,78.83
2018-04-28T05:54:38.108Z,76.25
2018-04-28T05:55:37.985Z,76.16
2018-04-28T05:56:37.861Z,77.87
2018-04-28T05:57:37.739Z,74.82
2018-04-28T05:58:37.617Z,73.11
2018-04-28T05:59:37.492Z,72.16
2018-04-28T06:00:37.367Z,72.53
2018-04-28T06:01:37.245Z,72.06
2018-04-28T06:02:37.121Z,72.06
2018-04-28T06:03:37.003Z,75.68
2018-04-28T06:04:36.877Z,73.49
2018-04-28T06:05:36.753Z,71.77
2018-04-28T06:06:36.631Z,72.57
2018-04-28T06:07:36.517Z,72.09
2018-04-28T06:08:36.382Z,71.33
2018-04-28T06:09:36.258Z,73.43
2018-04-28T06:10:36.135Z,71.23
2018-04-28T06:11:36.014Z,72.76
2018-04-28T06:12:35.891Z,73.85
2018-04-28T06:13:35.769Z,72.61
2018-04-28T06:14:35.646Z,71.94
2018-04-28T06:15:35.525Z,70.32
2018-04-28T06:16:35.399Z,72.03
2018-04-28T06:17:35.276Z,69.59
2018-04-28T06:18:35.155Z,68.82
2018-04-28T06:19:35.032Z,67.97
2018-04-28T06:20:34.907Z,68.35
2018-04-28T06:21:34.785Z,68.92
2018-04-28T06:22:34.667Z,66.63
2018-04-28T06:23:34.542Z,65.67
2018-04-28T06:24:34.420Z,67.40
2018-04-28T06:25:34.296Z,69.11
2018-04-28T06:26:34.175Z,66.44
2018-04-28T06:27:34.055Z,66.53
2018-04-28T06:28:33.929Z,65.71
2018-04-28T06:29:33.808Z,65.52
2018-04-28T06:30:33.687Z,68.38
2018-04-28T06:31:33.565Z,67.43
2018-04-28T06:32:33.447Z,65.80
2018-04-28T06:33:33.317Z,64.28
2018-04-28T06:34:33.197Z,63.23
2018-04-28T06:35:33.073Z,62.84
2018-04-28T06:36:32.951Z,65.04
2018-04-28T06:37:32.831Z,60.64
2018-04-28T06:38:32.709Z,60.64
2018-04-28T06:39:32.585Z,59.59
2018-04-28T06:40:32.463Z,63.32
2018-04-28T06:41:32.353Z,61.82
2018-04-28T06:42:32.222Z,61.06
2018-04-28T06:43:32.100Z,60.30
2018-04-28T06:44:31.976Z,60.77
2018-04-28T06:45:31.854Z,63.26
2018-04-28T06:46:31.733Z,62.52
2018-04-28T06:47:31.610Z,59.47
2018-04-28T06:48:31.566Z,58.86
2018-04-28T06:49:31.369Z,59.24
2018-04-28T06:50:31.249Z,60.01
2018-04-28T06:51:31.124Z,59.05
2018-04-28T06:52:31.003Z,59.44
2018-04-28T06:53:30.879Z,57.33
2018-04-28T06:54:30.761Z,58.22
2018-04-28T06:55:30.639Z,59.66
2018-04-28T06:56:30.518Z,57.75
2018-04-28T06:57:30.396Z,56.21
2018-04-28T06:58:30.360Z,56.40
2018-04-28T06:59:30.155Z,58.51
2018-04-28T07:00:30.032Z,57.07
2018-04-28T07:01:29.909Z,56.40
2018-04-28T07:02:29.789Z,58.51
2018-04-28T07:03:29.669Z,55.38
2018-04-28T07:04:29.570Z,54.71
2018-04-28T07:05:29.424Z,56.34
2018-04-28T07:06:29.306Z,54.80
2018-04-28T07:07:29.186Z,52.42
2018-04-28T07:08:29.062Z,55.76
2018-04-28T07:09:28.944Z,53.78
2018-04-28T07:10:28.819Z,51.01
2018-04-28T07:11:28.701Z,50.34
2018-04-28T07:12:28.578Z,50.52
2018-04-28T07:13:28.460Z,52.83
2018-04-28T07:14:28.336Z,51.97
2018-04-28T07:15:28.216Z,51.58
2018-04-28T07:16:28.096Z,52.73
2018-04-28T07:17:27.977Z,51.27
2018-04-28T07:18:27.862Z,53.88
2018-04-28T07:19:27.734Z,52.34
2018-04-28T07:20:27.613Z,53.30
2018-04-28T07:21:27.494Z,53.23
2018-04-28T07:22:27.373Z,53.04
2018-04-28T07:23:27.253Z,53.81
2018-04-28T07:24:27.131Z,51.61
2018-04-28T07:25:27.011Z,53.26
2018-04-28T07:26:26.891Z,51.13
2018-04-28T07:27:26.768Z,53.81
2018-04-28T07:28:26.650Z,53.71
2018-04-28T07:29:26.529Z,55.24
2018-04-28T07:30:26.417Z,55.44
2018-04-28T07:31:26.290Z,55.27
2018-04-28T07:32:26.170Z,54.48
2018-04-28T07:33:26.048Z,55.08
2018-04-28T07:34:25.927Z,57.57
2018-04-28T07:35:25.808Z,58.37
2018-04-28T07:36:25.686Z,54.63
2018-04-28T07:37:25.568Z,53.55
2018-04-28T07:38:25.449Z,56.32
2018-04-28T07:39:25.329Z,56.74
2018-04-28T07:40:25.206Z,56.45
2018-04-28T07:41:25.089Z,54.15
2018-04-28T07:42:25.031Z,55.30
2018-04-28T07:43:24.852Z,54.32
2018-04-28T07:44:24.730Z,54.79
2018-04-28T07:45:24.610Z,55.18
2018-04-28T07:46:24.490Z,55.94
2018-04-28T07:47:24.371Z,56.23
2018-04-28T07:48:24.251Z,56.54
2018-04-28T07:49:24.131Z,57.21
2018-04-28T07:50:24.013Z,56.54
2018-04-28T07:51:23.894Z,55.65
2018-04-28T07:52:23.772Z,55.36
2018-04-28T07:53:23.654Z,55.94
2018-04-28T07:54:23.535Z,55.27
2018-04-28T07:55:23.416Z,55.56
2018-04-28T07:56:23.298Z,54.79
2018-04-28T07:57:23.178Z,54.03
2018-04-28T07:58:23.056Z,55.94
2018-04-28T07:59:22.939Z,56.52
2018-04-28T08:00:22.832Z,55.87
2018-04-28T08:01:22.699Z,56.13
2018-04-28T08:02:22.580Z,56.71
2018-04-28T08:03:22.462Z,57.86
2018-04-28T08:04:22.339Z,59.39
2018-04-28T08:05:22.222Z,58.91
2018-04-28T08:06:22.105Z,61.69
2018-04-28T08:07:21.982Z,57.79
2018-04-28T08:08:21.864Z,58.37
2018-04-28T08:09:21.746Z,56.64
2018-04-28T08:10:21.658Z,54.82
2018-04-28T08:11:21.507Z,58.27
2018-04-28T08:12:21.385Z,55.40
2018-04-28T08:13:21.268Z,53.96
2018-04-28T08:14:21.148Z,54.05
2018-04-28T08:15:21.061Z,55.46
2018-04-28T08:16:20.908Z,55.78
2018-04-28T08:17:20.791Z,56.83
2018-04-28T08:18:20.674Z,55.58
2018-04-28T08:19:20.555Z,53.77
2018-04-28T08:20:20.433Z,53.48
2018-04-28T08:21:20.315Z,55.49
2018-04-28T08:22:20.198Z,54.53
2018-04-28T08:23:20.077Z,53.09
2018-04-28T08:24:19.957Z,54.05
2018-04-28T08:25:19.838Z,55.52
2018-04-28T08:26:19.719Z,54.66
2018-04-28T08:27:19.600Z,54.46
2018-04-28T08:28:19.479Z,55.80
2018-04-28T08:29:19.362Z,54.75
2018-04-28T08:30:19.249Z,53.60
2018-04-28T08:31:19.123Z,54.17
2018-04-28T08:32:19.004Z,54.46
2018-04-28T08:33:18.886Z,55.13
2018-04-28T08:34:18.766Z,53.58
2018-04-28T08:35:18.645Z,54.17
2018-04-28T08:36:18.527Z,54.75
2018-04-28T08:37:18.506Z,54.56
2018-04-28T08:38:18.290Z,54.75
2018-04-28T08:39:18.173Z,53.60
2018-04-28T08:40:18.057Z,51.78
2018-04-28T08:41:17.934Z,53.70
2018-04-28T08:42:17.816Z,53.41
2018-04-28T08:43:17.696Z,53.79
2018-04-28T08:44:17.576Z,53.99
2018-04-28T08:45:17.457Z,52.36
2018-04-28T08:46:17.341Z,51.08
2018-04-28T08:47:17.222Z,53.50
2018-04-28T08:48:17.101Z,53.12
2018-04-28T08:49:16.982Z,52.16
2018-04-28T08:50:16.863Z,52.33
2018-04-28T08:51:16.744Z,51.85
2018-04-28T08:52:16.625Z,55.23
2018-04-28T08:53:16.505Z,53.60
2018-04-28T08:54:16.389Z,52.71
2018-04-28T08:55:16.267Z,53.22
2018-04-28T08:56:16.147Z,55.52
2018-04-28T08:57:16.032Z,56.02
2018-04-28T08:58:15.910Z,50.87
2018-04-28T08:59:15.792Z,49.82
2018-04-28T09:00:15.675Z,52.05
2018-04-28T09:01:15.554Z,48.95
2018-04-28T09:02:15.438Z,49.93
2018-04-28T09:03:15.315Z,50.61
2018-04-28T09:04:15.199Z,51.37
2018-04-28T09:05:15.081Z,50.51
2018-04-28T09:06:14.963Z,50.42
2018-04-28T09:07:14.845Z,50.05
2018-04-28T09:08:14.727Z,48.33
2018-04-28T09:09:14.608Z,48.74
2018-04-28T09:10:14.487Z,48.81
2018-04-28T09:11:14.372Z,50.25
2018-04-28T09:12:14.253Z,49.46
2018-04-28T09:13:14.135Z,48.02
2018-04-28T09:14:14.018Z,50.90
2018-04-28T09:15:13.901Z,49.07
2018-04-28T09:16:13.781Z,49.96
2018-04-28T09:17:13.665Z,49.46
2018-04-28T09:18:13.545Z,49.21
2018-04-28T09:19:13.427Z,51.61
2018-04-28T09:20:13.311Z,50.84
2018-04-28T09:21:13.194Z,49.12
2018-04-28T09:22:13.076Z,47.49
2018-04-28T09:23:12.958Z,46.24
2018-04-28T09:24:12.838Z,46.05
2018-04-28T09:25:12.719Z,52.31
2018-04-28T09:26:12.744Z,49.52
2018-04-28T09:27:12.486Z,48.02
2018-04-28T09:28:12.369Z,44.94
2018-04-28T09:29:12.250Z,45.21
2018-04-28T09:30:12.129Z,45.23
2018-04-28T09:31:12.012Z,41.66
2018-04-28T09:32:11.893Z,42.81
2018-04-28T09:33:11.776Z,47.44
2018-04-28T09:34:11.658Z,42.71
2018-04-28T09:35:11.539Z,42.54
2018-04-28T09:36:11.421Z,41.96
2018-04-28T09:37:11.302Z,46.69
2018-04-28T09:38:11.187Z,47.97
2018-04-28T09:39:11.068Z,47.99
2018-04-28T09:40:10.948Z,44.41
2018-04-28T09:41:10.832Z,42.47
2018-04-28T09:42:10.714Z,41.20
2018-04-28T09:43:10.598Z,43.29
2018-04-28T09:44:10.481Z,43.50
2018-04-28T09:45:10.360Z,39.73
2018-04-28T09:46:10.243Z,41.20
2018-04-28T09:47:10.125Z,44.56
2018-04-28T09:48:10.018Z,47.08
2018-04-28T09:49:09.890Z,45.35
2018-04-28T09:50:09.771Z,42.93
2018-04-28T09:51:09.654Z,42.16
2018-04-28T09:52:09.537Z,43.14
2018-04-28T09:53:09.418Z,41.89
2018-04-28T09:54:09.300Z,41.39
2018-04-28T09:55:09.184Z,39.47
2018-04-28T09:56:09.063Z,38.49
2018-04-28T09:57:08.947Z,38.28
2018-04-28T09:58:08.833Z,40.89
2018-04-28T09:59:08.714Z,41.25
2018-04-28T10:00:08.592Z,39.14
2018-04-28T10:01:08.475Z,38.54
2018-04-28T10:02:08.356Z,39.31
2018-04-28T10:03:08.244Z,40.08
2018-04-28T10:04:08.122Z,38.56
2018-04-28T10:05:08.004Z,39.62
2018-04-28T10:06:07.885Z,38.96
2018-04-28T10:07:07.765Z,37.24
2018-04-28T10:08:07.648Z,35.69
2018-04-28T10:09:07.532Z,36.16
2018-04-28T10:10:07.410Z,34.52
2018-04-28T10:11:07.293Z,34.33
2018-04-28T10:12:07.173Z,34.90
2018-04-28T10:13:07.054Z,35.57
2018-04-28T10:14:06.936Z,35.17
2018-04-28T10:15:06.817Z,35.17
2018-04-28T10:16:06.701Z,37.28
2018-04-28T10:17:06.581Z,37.47
2018-04-28T10:18:06.461Z,37.85
2018-04-28T10:19:06.344Z,36.59
2018-04-28T10:20:06.236Z,35.92
2018-04-28T10:21:06.102Z,34.58
2018-04-28T10:22:05.985Z,35.06
2018-04-28T10:23:05.866Z,36.11
2018-04-28T10:24:05.746Z,37.16
2018-04-28T10:25:05.630Z,38.79
2018-04-28T10:26:05.505Z,38.51
2018-04-28T10:27:05.387Z,37.55
2018-04-28T10:28:05.269Z,38.03
2018-04-28T10:29:05.147Z,37.74
2018-04-28T10:30:05.028Z,36.21
2018-04-28T10:31:04.913Z,37.16
2018-04-28T10:32:04.789Z,36.49
2018-04-28T10:33:04.669Z,35.92
2018-04-28T10:34:04.548Z,37.36
2018-04-28T10:35:04.428Z,37.26
2018-04-28T10:36:04.310Z,35.73
2018-04-28T10:37:04.187Z,35.06
2018-04-28T10:38:04.071Z,35.08
2018-04-28T10:39:03.948Z,34.88
2018-04-28T10:40:03.829Z,34.12
2018-04-28T10:41:03.708Z,34.02
2018-04-28T10:42:03.589Z,33.64
2018-04-28T10:43:03.474Z,34.79
2018-04-28T10:44:03.347Z,34.29
2018-04-28T10:45:03.228Z,34.96
2018-04-28T10:46:03.110Z,35.06
2018-04-28T10:47:02.989Z,33.81
2018-04-28T10:48:02.867Z,35.75
2018-04-28T10:49:02.750Z,34.98
2018-04-28T10:50:02.630Z,35.65
2018-04-28T10:51:02.511Z,36.44
2018-04-28T10:52:02.390Z,38.18
2018-04-28T10:53:02.275Z,37.70
2018-04-28T10:54:02.151Z,35.02
2018-04-28T10:55:02.033Z,33.94
2018-04-28T10:56:01.912Z,35.48
2018-04-28T10:57:01.796Z,35.96
2018-04-28T10:58:01.672Z,36.93
2018-04-28T10:59:01.556Z,37.53
2018-04-28T11:00:01.435Z,36.57
2018-04-28T11:01:01.317Z,34.17
2018-04-28T11:02:01.198Z,32.25
2018-04-28T11:03:01.080Z,33.03
2018-04-28T11:04:00.960Z,34.88
2018-04-28T11:05:00.843Z,35.06
2018-04-28T11:06:00.723Z,35.18
2018-04-28T11:07:00.681Z,35.85
2018-04-28T11:08:00.487Z,37.01
2018-04-28T11:09:00.367Z,35.57
2018-04-28T11:10:00.250Z,34.49
2018-04-28T11:11:00.136Z,36.82
2018-04-28T11:12:00.019Z,36.05
2018-04-28T11:12:59.897Z,35.68
2018-04-28T11:13:59.777Z,31.80
2018-04-28T11:14:59.661Z,31.23
2018-04-28T11:15:59.544Z,31.82
2018-04-28T11:16:59.431Z,31.90
2018-04-28T11:17:59.311Z,30.36
2018-04-28T11:18:59.194Z,30.28
2018-04-28T11:19:59.099Z,32.21
2018-04-28T11:20:58.959Z,30.19
2018-04-28T11:21:58.841Z,29.24
2018-04-28T11:22:58.725Z,30.38
2018-04-28T11:23:58.607Z,30.95
2018-04-28T11:24:58.493Z,29.13
2018-04-28T11:25:58.376Z,29.33
2018-04-28T11:26:58.258Z,30.40
2018-04-28T11:27:58.141Z,30.63
2018-04-28T11:28:58.024Z,27.85
2018-04-28T11:29:57.909Z,28.44
2018-04-28T11:30:57.792Z,29.52
2018-04-28T11:31:57.725Z,28.14
2018-04-28T11:32:57.642Z,27.81
2018-04-28T11:33:57.444Z,28.85
2018-04-28T11:34:57.327Z,29.15
2018-04-28T11:35:57.209Z,29.07
2018-04-28T11:36:57.095Z,28.89
2018-04-28T11:37:56.978Z,28.91
2018-04-28T11:38:56.864Z,28.83
2018-04-28T11:39:56.747Z,27.53
2018-04-28T11:40:56.632Z,27.93
2018-04-28T11:41:56.517Z,29.15
2018-04-28T11:42:56.403Z,29.94
2018-04-28T11:43:56.283Z,30.13
2018-04-28T11:44:56.169Z,30.40
2018-04-28T11:45:56.052Z,29.55
2018-04-28T11:46:55.939Z,30.15
2018-04-28T11:47:55.822Z,29.20
2018-04-28T11:48:55.710Z,30.43
2018-04-28T11:49:55.592Z,29.65
2018-04-28T11:50:55.477Z,28.77
2018-04-28T11:51:55.361Z,29.44
2018-04-28T11:52:55.247Z,30.76
2018-04-28T11:53:55.134Z,31.62
2018-04-28T11:54:55.022Z,31.27
2018-04-28T11:55:54.899Z,31.37
2018-04-28T11:56:54.784Z,30.40
2018-04-28T11:57:54.671Z,32.23
2018-04-28T11:58:54.579Z,33.10
2018-04-28T11:59:54.438Z,31.35
2018-04-28T12:00:54.319Z,31.64
2018-04-28T12:01:54.206Z,31.83
2018-04-28T12:02:54.087Z,31.61
2018-04-28T12:03:53.972Z,31.00
2018-04-28T12:04:53.856Z,31.77
2018-04-28T12:05:53.739Z,33.00
2018-04-28T12:06:53.622Z,33.96
2018-04-28T12:07:53.505Z,34.06
2018-04-28T12:08:53.387Z,33.78
2018-04-28T12:09:53.278Z,33.31
2018-04-28T12:10:53.155Z,32.92
2018-04-28T12:11:53.037Z,32.17
2018-04-28T12:12:52.920Z,32.07
2018-04-28T12:13:52.801Z,32.82
2018-04-28T12:14:52.689Z,33.90
2018-04-28T12:15:52.565Z,34.01
2018-04-28T12:16:52.449Z,32.12
2018-04-28T12:17:52.333Z,30.95
2018-04-28T12:18:52.216Z,32.09
2018-04-28T12:19:52.099Z,33.90
2018-04-28T12:20:51.980Z,33.23
2018-04-28T12:21:51.862Z,33.80
2018-04-28T12:22:51.745Z,32.84
2018-04-28T12:23:51.626Z,32.47
2018-04-28T12:24:51.510Z,32.26
2018-04-28T12:25:51.391Z,32.55
2018-04-28T12:26:51.277Z,33.13
2018-04-28T12:27:51.155Z,33.91
2018-04-28T12:28:51.037Z,33.53
2018-04-28T12:29:50.959Z,33.74
2018-04-28T12:30:50.809Z,32.49
2018-04-28T12:31:50.691Z,31.24
2018-04-28T12:32:50.570Z,33.54
2018-04-28T12:33:50.451Z,33.95
2018-04-28T12:34:50.333Z,33.45
2018-04-28T12:35:50.216Z,32.76
2018-04-28T12:36:50.103Z,33.53
2018-04-28T12:37:49.982Z,32.36
2018-04-28T12:38:49.865Z,32.73
2018-04-28T12:39:49.748Z,33.19
2018-04-28T12:40:49.629Z,34.15
2018-04-28T12:41:49.518Z,34.73
2018-04-28T12:42:49.397Z,34.63
2018-04-28T12:43:49.279Z,35.13
2018-04-28T12:44:49.161Z,34.25
2018-04-28T12:45:49.041Z,34.06
2018-04-28T12:46:48.926Z,33.88
2018-04-28T12:47:48.807Z,33.98
2018-04-28T12:48:48.688Z,33.69
2018-04-28T12:49:48.572Z,33.90
2018-04-28T12:50:48.468Z,33.72